createdAt,value
2024-02-29T00:00:42.844Z,16.70
2024-02-29T00:03:10.354Z,12.83
2024-02-29T00:05:40.628Z,16.50
2024-02-29T00:08:10.059Z,14.67
2024-02-29T00:10:36.740Z,16.03
2024-02-29T00:13:07.120Z,14.27
2024-02-29T00:15:34.044Z,15.93
2024-02-29T00:18:00.773Z,17.17
2024-02-29T00:20:28.625Z,15.40
2024-02-29T00:22:55.484Z,15.30
2024-02-29T00:25:24.323Z,15.17
2024-02-29T00:27:51.291Z,18.13
2024-02-29T00:30:18.813Z,16.37
2024-02-29T00:32:47.707Z,15.80
2024-02-29T00:35:19.608Z,15.30
2024-02-29T00:37:47.501Z,17.20
2024-02-29T00:40:14.408Z,15.40
2024-02-29T00:42:42.277Z,13.87
2024-02-29T00:45:10.382Z,14.27
2024-02-29T00:47:37.279Z,13.93
2024-02-29T00:50:04.173Z,14.93
2024-02-29T00:52:35.800Z,14.30
2024-02-29T00:55:08.387Z,14.60
2024-02-29T00:57:36.267Z,12.93
2024-02-29T01:00:03.070Z,16.90
2024-02-29T01:02:30.990Z,15.43
2024-02-29T01:04:58.843Z,15.40
2024-02-29T01:07:25.722Z,16.07
2024-02-29T01:09:52.413Z,15.27
2024-02-29T01:12:19.080Z,16.30
2024-02-29T01:14:45.819Z,15.77
2024-02-29T01:17:13.761Z,16.10
2024-02-29T01:19:48.922Z,12.23
2024-02-29T01:22:18.294Z,13.50
2024-02-29T01:24:46.231Z,13.90
2024-02-29T01:27:13.260Z,14.13
2024-02-29T01:29:40.798Z,14.43
2024-02-29T01:32:15.777Z,13.23
2024-02-29T01:34:49.110Z,13.93
2024-02-29T01:37:17.900Z,14.47
2024-02-29T01:39:45.607Z,15.53
2024-02-29T01:42:14.768Z,12.63
2024-02-29T01:44:56.984Z,14.87
2024-02-29T01:47:25.555Z,14.40
2024-02-29T01:49:53.096Z,14.17
2024-02-29T01:52:19.866Z,13.20
2024-02-29T01:54:51.664Z,11.07
2024-02-29T01:57:21.347Z,13.07
2024-02-29T01:59:49.123Z,10.80
2024-02-29T02:02:16.970Z,11.57
2024-02-29T02:04:43.719Z,14.40
2024-02-29T02:07:10.512Z,13.60
2024-02-29T02:09:42.364Z,11.30
2024-02-29T02:12:11.659Z,15.07
2024-02-29T02:14:44.088Z,13.30
2024-02-29T02:17:16.025Z,11.40
2024-02-29T02:19:44.779Z,12.73
2024-02-29T02:22:13.778Z,12.17
2024-02-29T02:24:40.481Z,13.40
2024-02-29T02:27:07.440Z,11.77
2024-02-29T02:29:35.239Z,12.30
2024-02-29T02:32:12.398Z,11.63
2024-02-29T02:34:54.477Z,12.37
2024-02-29T02:37:24.306Z,12.63
2024-02-29T02:39:52.201Z,12.10
2024-02-29T02:42:21.264Z,12.90
2024-02-29T02:44:48.192Z,11.80
2024-02-29T02:47:16.113Z,12.30
2024-02-29T02:49:43.571Z,11.57
2024-02-29T02:52:11.095Z,10.93
2024-02-29T02:54:38.362Z,8.80
2024-02-29T02:57:06.165Z,11.67
2024-02-29T02:59:42.179Z,9.83
2024-02-29T03:02:10.155Z,12.30
2024-02-29T03:04:42.116Z,11.13
2024-02-29T03:07:08.849Z,11.97
2024-02-29T03:09:35.566Z,10.70
2024-02-29T03:12:03.374Z,11.70
2024-02-29T03:14:30.598Z,10.43
2024-02-29T03:16:57.588Z,12.87
2024-02-29T03:19:24.288Z,11.03
2024-02-29T03:21:51.035Z,12.13
2024-02-29T03:24:19.280Z,10.67
2024-02-29T03:26:48.102Z,10.53
2024-02-29T03:29:15.897Z,9.77
2024-02-29T03:31:46.642Z,10.07
2024-02-29T03:34:13.536Z,9.37
2024-02-29T03:36:41.289Z,9.10
2024-02-29T03:39:08.465Z,10.47
2024-02-29T03:41:37.126Z,10.17
2024-02-29T03:44:03.967Z,7.60
2024-02-29T03:46:30.685Z,9.43
2024-02-29T03:49:07.451Z,9.10
2024-02-29T03:51:34.869Z,9.53
2024-02-29T03:54:03.568Z,8.73
2024-02-29T03:56:30.234Z,7.83
2024-02-29T03:59:06.338Z,7.40
2024-02-29T04:01:37.588Z,8.20
2024-02-29T04:04:07.484Z,6.53
2024-02-29T04:06:36.329Z,8.57
2024-02-29T04:09:04.103Z,8.77
2024-02-29T04:11:30.893Z,7.57
2024-02-29T04:13:57.589Z,7.87
2024-02-29T04:16:24.630Z,6.33
2024-02-29T04:18:51.456Z,8.33
2024-02-29T04:21:18.176Z,7.77
2024-02-29T04:23:44.854Z,6.90
2024-02-29T04:26:12.577Z,7.40
2024-02-29T04:28:40.325Z,7.60
2024-02-29T04:31:07.285Z,7.63
2024-02-29T04:33:38.053Z,7.90
2024-02-29T04:36:06.631Z,6.10
2024-02-29T04:38:34.333Z,7.13
2024-02-29T05:03:51.419Z,6.43
2024-02-29T05:06:18.589Z,6.83
2024-02-29T05:08:46.463Z,5.20
2024-02-29T05:11:14.108Z,5.73
2024-02-29T05:13:41.018Z,6.20
2024-02-29T05:16:08.587Z,5.43
2024-02-29T05:18:46.702Z,6.60
2024-02-29T05:21:14.604Z,5.67
2024-02-29T05:23:43.618Z,6.53
2024-02-29T05:26:11.601Z,5.50
2024-02-29T05:28:40.645Z,6.67
2024-02-29T05:31:07.570Z,6.53
2024-02-29T05:33:34.503Z,5.67
2024-02-29T05:36:01.382Z,5.47
2024-02-29T05:38:28.532Z,5.70
2024-02-29T05:40:55.310Z,6.20
2024-02-29T05:43:22.681Z,5.73
2024-02-29T05:45:49.549Z,6.43
2024-02-29T05:48:16.528Z,4.50
2024-02-29T05:50:43.368Z,5.47
2024-02-29T05:53:11.670Z,5.83
2024-02-29T05:55:38.554Z,5.57
2024-02-29T05:58:05.601Z,5.07
2024-02-29T06:00:33.614Z,4.87
2024-02-29T06:03:00.611Z,5.17
2024-02-29T06:05:37.014Z,4.30
2024-02-29T06:08:06.511Z,5.27
2024-02-29T06:10:33.273Z,6.03
2024-02-29T06:13:00.100Z,5.33
2024-02-29T06:15:26.993Z,5.20
2024-02-29T06:17:56.271Z,4.60
2024-02-29T06:20:23.847Z,4.50
2024-02-29T06:22:50.548Z,4.40
2024-02-29T06:25:19.191Z,4.20
2024-02-29T06:27:46.872Z,5.27
2024-02-29T06:30:32.187Z,5.30
2024-02-29T06:33:02.601Z,4.90
2024-02-29T06:35:29.755Z,4.60
2024-02-29T06:37:56.733Z,4.53
2024-02-29T06:40:24.736Z,5.27
2024-02-29T06:42:52.701Z,5.40
2024-02-29T06:45:19.663Z,4.27
2024-02-29T06:47:51.274Z,4.37
2024-02-29T06:50:18.418Z,5.17
2024-02-29T06:52:45.463Z,4.90
2024-02-29T06:55:12.866Z,5.43
2024-02-29T06:57:39.782Z,4.63
2024-02-29T07:00:16.930Z,5.27
2024-02-29T07:02:43.882Z,5.23
2024-02-29T07:05:11.211Z,4.90
2024-02-29T07:07:40.056Z,3.93
2024-02-29T07:10:09.426Z,4.40
2024-02-29T07:12:41.534Z,4.67
2024-02-29T07:15:08.774Z,5.70
2024-02-29T07:17:35.538Z,5.60
2024-02-29T07:20:02.386Z,5.23
2024-02-29T07:22:29.806Z,6.53
2024-02-29T07:24:56.974Z,4.90
2024-02-29T07:27:24.170Z,5.40
2024-02-29T07:29:52.040Z,5.43
2024-02-29T07:32:18.797Z,5.33
2024-02-29T07:34:45.663Z,4.53
2024-02-29T07:37:12.564Z,5.23
2024-02-29T07:39:39.325Z,4.90
2024-02-29T07:42:06.595Z,4.77
2024-02-29T07:44:34.092Z,4.37
2024-02-29T07:47:04.006Z,5.43
2024-02-29T07:49:33.200Z,5.67
2024-02-29T07:52:03.169Z,4.40
2024-02-29T07:54:32.091Z,4.83
2024-02-29T07:56:59.127Z,5.27
2024-02-29T07:59:26.976Z,4.80
2024-02-29T08:01:54.413Z,5.20
2024-02-29T08:04:21.664Z,4.47
2024-02-29T08:06:48.610Z,5.07
2024-02-29T08:09:15.630Z,5.47
2024-02-29T08:11:42.779Z,5.10
2024-02-29T08:14:10.274Z,5.13
2024-02-29T08:16:37.480Z,4.30
2024-02-29T08:19:09.851Z,6.00
2024-02-29T08:21:40.218Z,4.97
2024-02-29T08:24:07.906Z,5.40
2024-02-29T08:26:35.936Z,4.90
2024-02-29T08:29:07.865Z,5.37
2024-02-29T08:31:43.439Z,4.40
2024-02-29T08:34:16.281Z,4.30
2024-02-29T08:36:44.772Z,5.40
2024-02-29T08:39:15.396Z,4.30
2024-02-29T08:41:42.245Z,5.00
2024-02-29T08:44:09.504Z,5.47
2024-02-29T08:46:36.551Z,4.20
2024-02-29T08:49:04.364Z,5.50
2024-02-29T08:51:31.779Z,5.40
2024-02-29T08:53:59.829Z,6.00
2024-02-29T08:56:34.368Z,5.33
2024-02-29T08:59:01.271Z,6.20
2024-02-29T09:01:28.396Z,5.40
2024-02-29T09:04:00.319Z,5.70
2024-02-29T09:06:38.885Z,6.03
2024-02-29T09:09:08.330Z,5.37
2024-02-29T09:11:37.807Z,4.10
2024-02-29T09:14:04.938Z,4.40
2024-02-29T09:16:32.020Z,6.10
2024-02-29T09:19:01.764Z,5.37
2024-02-29T09:21:31.169Z,5.17
2024-02-29T09:24:00.397Z,5.03
2024-02-29T09:26:27.320Z,5.50
2024-02-29T09:28:54.648Z,4.63
2024-02-29T09:31:23.676Z,5.10
2024-02-29T09:33:50.803Z,5.87
2024-02-29T09:36:19.475Z,4.87
2024-02-29T09:38:46.621Z,5.47
2024-02-29T09:41:31.871Z,5.90
2024-02-29T09:44:01.147Z,5.50
2024-02-29T09:46:30.368Z,5.20
2024-02-29T09:48:59.155Z,4.80
2024-02-29T09:51:26.511Z,5.13
2024-02-29T09:53:54.287Z,6.47
2024-02-29T09:56:25.168Z,5.80
2024-02-29T09:59:00.902Z,5.17
2024-02-29T10:01:28.700Z,5.70
2024-02-29T10:03:55.894Z,5.73
2024-02-29T10:06:26.604Z,4.07
2024-02-29T10:08:53.658Z,6.47
2024-02-29T10:11:21.110Z,5.83
2024-02-29T10:14:03.841Z,5.20
2024-02-29T10:16:32.875Z,5.10
2024-02-29T10:19:02.123Z,5.83
2024-02-29T10:21:29.609Z,5.60
2024-02-29T10:23:57.289Z,4.33
2024-02-29T10:26:24.238Z,5.53
2024-02-29T10:28:52.099Z,5.40
2024-02-29T10:31:19.339Z,5.60
2024-02-29T10:33:49.941Z,5.30
2024-02-29T10:36:33.160Z,5.73
2024-02-29T10:39:02.743Z,5.10
2024-02-29T10:41:33.338Z,3.90
2024-02-29T10:44:12.468Z,5.20
2024-02-29T10:46:41.492Z,4.67
2024-02-29T10:49:17.619Z,3.83
2024-02-29T10:51:45.735Z,4.90
2024-02-29T10:54:23.251Z,4.03
2024-02-29T10:56:54.482Z,5.63
2024-02-29T10:59:21.421Z,5.30
2024-02-29T11:01:49.266Z,4.27
2024-02-29T11:04:17.333Z,6.20
2024-02-29T11:06:49.296Z,5.70
2024-02-29T11:09:28.082Z,6.50
2024-02-29T11:12:15.002Z,5.23
2024-02-29T11:14:46.810Z,5.20
2024-02-29T11:17:32.604Z,4.50
2024-02-29T11:20:00.624Z,4.90
2024-02-29T11:22:42.395Z,5.03
2024-02-29T11:25:12.514Z,5.20
2024-02-29T11:27:49.174Z,3.77
2024-02-29T11:30:24.643Z,5.17
2024-02-29T11:32:52.586Z,5.33
2024-02-29T11:35:19.998Z,4.70
2024-02-29T11:37:54.816Z,5.30
2024-02-29T11:40:21.742Z,4.60
2024-02-29T11:42:48.721Z,6.00
2024-02-29T11:45:32.997Z,5.43
2024-02-29T11:48:00.151Z,3.67
2024-02-29T11:50:30.145Z,5.17
2024-02-29T11:53:04.997Z,4.87
2024-02-29T11:55:35.097Z,4.90
2024-02-29T11:58:03.774Z,5.37
2024-02-29T12:00:35.210Z,4.43
2024-02-29T12:03:02.715Z,6.30
2024-02-29T12:05:30.223Z,5.27
2024-02-29T12:07:58.660Z,5.40
2024-02-29T12:10:25.917Z,5.20
2024-02-29T12:12:56.787Z,5.90
2024-02-29T12:15:31.327Z,6.57
2024-02-29T12:17:59.888Z,5.50
2024-02-29T12:20:26.944Z,5.47
2024-02-29T12:23:02.290Z,5.33
2024-02-29T12:25:29.681Z,5.60
2024-02-29T12:27:57.070Z,6.17
2024-02-29T12:30:23.852Z,5.73
2024-02-29T12:32:50.667Z,5.50
2024-02-29T12:35:21.604Z,6.30
2024-02-29T12:37:51.581Z,5.93
2024-02-29T12:40:18.709Z,5.53
2024-02-29T12:42:45.724Z,5.90
2024-02-29T12:45:15.187Z,5.90
2024-02-29T12:47:44.318Z,6.10
2024-02-29T12:50:11.779Z,5.17
2024-02-29T12:52:49.462Z,5.20
2024-02-29T12:55:26.729Z,5.83
2024-02-29T12:57:53.959Z,6.17
2024-02-29T13:00:25.446Z,5.33
2024-02-29T13:02:53.050Z,5.07
2024-02-29T13:05:20.740Z,5.70
2024-02-29T13:07:47.550Z,5.30
2024-02-29T13:10:14.384Z,4.80
2024-02-29T13:12:42.233Z,5.70
2024-02-29T13:15:09.994Z,5.33
2024-02-29T13:17:37.063Z,6.00
2024-02-29T13:20:10.768Z,5.77
2024-02-29T13:22:40.492Z,5.90
2024-02-29T13:25:09.978Z,4.43
2024-02-29T13:27:36.891Z,5.90
2024-02-29T13:30:04.372Z,5.63
2024-02-29T13:32:31.229Z,5.10
2024-02-29T13:35:06.560Z,4.67
2024-02-29T13:37:33.509Z,5.53
2024-02-29T13:40:00.491Z,6.00
2024-02-29T13:42:27.448Z,4.70
2024-02-29T13:45:01.367Z,4.10
2024-02-29T13:47:29.252Z,5.77
2024-02-29T13:49:56.176Z,5.30
2024-02-29T13:52:23.172Z,4.80
2024-02-29T13:54:55.362Z,5.10
2024-02-29T13:57:23.589Z,4.23
2024-02-29T13:59:50.889Z,4.00
2024-02-29T14:02:17.870Z,5.00
2024-02-29T14:04:44.968Z,5.27
2024-02-29T14:07:12.049Z,5.77
2024-02-29T14:09:39.410Z,6.50
2024-02-29T14:12:06.412Z,5.10
2024-02-29T14:14:33.580Z,4.47
2024-02-29T14:17:00.351Z,4.33
2024-02-29T14:19:27.411Z,4.97
2024-02-29T14:21:54.293Z,5.53
2024-02-29T14:24:27.460Z,4.80
2024-02-29T14:26:54.289Z,4.63
2024-02-29T14:29:21.066Z,4.43
2024-02-29T14:31:47.955Z,4.97
2024-02-29T14:34:15.032Z,4.50
2024-02-29T14:36:42.351Z,4.23
2024-02-29T14:39:15.382Z,5.17
2024-02-29T14:41:45.354Z,5.10
2024-02-29T14:44:12.747Z,4.90
2024-02-29T14:46:39.622Z,4.87
2024-02-29T14:49:06.535Z,4.43
2024-02-29T14:51:36.370Z,5.27
2024-02-29T14:54:07.632Z,4.83
2024-02-29T14:56:38.051Z,5.37
2024-02-29T14:59:12.157Z,4.10
2024-02-29T15:01:40.132Z,4.40
2024-02-29T15:04:07.357Z,5.10
2024-02-29T15:06:35.450Z,5.90
2024-02-29T15:09:02.860Z,5.50
2024-02-29T15:11:30.816Z,5.37
2024-02-29T15:14:00.332Z,5.30
2024-02-29T15:16:27.825Z,4.67
2024-02-29T15:18:55.077Z,4.40
2024-02-29T15:21:22.198Z,4.43
2024-02-29T15:23:48.996Z,4.00
2024-02-29T15:26:16.759Z,5.07
2024-02-29T15:28:49.275Z,4.10
2024-02-29T15:31:16.888Z,5.00
2024-02-29T15:33:44.054Z,4.53
2024-02-29T15:36:14.537Z,4.40
2024-02-29T15:38:41.492Z,4.30
2024-02-29T15:41:08.951Z,5.23
2024-02-29T15:43:41.256Z,5.03
2024-02-29T15:46:08.462Z,4.40
2024-02-29T15:48:35.441Z,3.90
2024-02-29T15:51:02.526Z,4.33
2024-02-29T15:53:32.435Z,4.63
2024-02-29T15:56:02.505Z,4.53
2024-02-29T15:58:31.236Z,4.17
2024-02-29T16:00:58.599Z,4.10
2024-02-29T16:03:26.356Z,4.60
2024-02-29T16:05:54.758Z,4.87
2024-02-29T16:08:21.918Z,4.40
2024-02-29T16:10:48.815Z,4.37
2024-02-29T16:13:15.925Z,4.30
2024-02-29T16:15:43.714Z,4.20
2024-02-29T16:18:11.887Z,3.70
2024-02-29T16:20:39.905Z,5.00
2024-02-29T16:23:06.688Z,3.53
2024-02-29T16:25:33.596Z,4.33
2024-02-29T16:28:00.680Z,4.60
2024-02-29T16:30:28.026Z,3.40
2024-02-29T16:32:57.504Z,3.23
2024-02-29T16:35:24.734Z,4.87
2024-02-29T16:37:51.988Z,4.20
2024-02-29T16:40:21.533Z,4.73
2024-02-29T16:42:48.697Z,3.67
2024-02-29T16:45:15.973Z,4.53
2024-02-29T16:47:43.938Z,3.30
2024-02-29T16:50:13.626Z,4.10
2024-02-29T16:52:42.721Z,4.83
2024-02-29T16:55:09.825Z,4.70
2024-02-29T16:57:38.851Z,4.33
2024-02-29T17:00:06.174Z,5.00
2024-02-29T17:02:33.768Z,4.60
2024-02-29T17:05:00.800Z,5.00
2024-02-29T17:07:28.810Z,4.90
2024-02-29T17:10:00.367Z,3.57
2024-02-29T17:12:27.706Z,3.80
2024-02-29T17:14:54.452Z,4.47
2024-02-29T17:17:21.253Z,4.27
2024-02-29T17:19:48.042Z,5.13
2024-02-29T17:22:17.335Z,4.10
2024-02-29T17:24:46.795Z,3.50
2024-02-29T17:27:33.422Z,3.87
2024-02-29T17:30:05.547Z,3.83
2024-02-29T17:32:42.453Z,4.27
2024-02-29T17:35:17.603Z,3.47
2024-02-29T17:37:45.432Z,3.80
2024-02-29T17:40:17.820Z,4.60
2024-02-29T17:42:49.627Z,3.70
2024-02-29T17:45:20.510Z,3.27
2024-02-29T17:47:51.064Z,5.33
2024-02-29T17:50:26.060Z,4.93
2024-02-29T17:52:57.550Z,3.87
2024-02-29T17:55:30.658Z,4.40
2024-02-29T17:58:00.147Z,4.20
2024-02-29T18:00:28.236Z,2.87
2024-02-29T18:02:56.569Z,4.07
2024-02-29T18:05:36.227Z,4.20
2024-02-29T18:08:06.875Z,3.20
2024-02-29T18:10:34.496Z,3.20
2024-02-29T18:13:04.797Z,4.17
2024-02-29T18:15:31.581Z,3.90
2024-02-29T18:17:58.905Z,4.07
2024-02-29T18:20:26.347Z,4.00
2024-02-29T18:22:53.235Z,4.10
2024-02-29T18:25:20.596Z,4.30
2024-02-29T18:27:47.715Z,3.30
2024-02-29T18:30:19.033Z,2.90
2024-02-29T18:32:47.102Z,3.33
2024-02-29T18:35:20.079Z,4.03
2024-02-29T18:37:46.872Z,4.07
2024-02-29T18:40:14.131Z,3.10
2024-02-29T18:42:41.256Z,3.10
2024-02-29T18:45:08.674Z,3.20
2024-02-29T18:47:42.085Z,3.63
2024-02-29T18:50:09.515Z,3.80
2024-02-29T18:52:38.618Z,3.00
2024-02-29T18:55:11.694Z,3.13
2024-02-29T18:57:39.670Z,3.43
2024-02-29T19:00:07.954Z,3.93
2024-02-29T19:02:34.967Z,3.13
2024-02-29T19:05:02.125Z,3.47
2024-02-29T19:07:30.188Z,3.50
2024-02-29T19:09:58.532Z,3.00
2024-02-29T19:12:27.259Z,2.80
2024-02-29T19:14:57.933Z,3.23
2024-02-29T19:17:26.179Z,2.73
2024-02-29T19:19:56.033Z,2.80
2024-02-29T19:22:28.843Z,3.20
2024-02-29T19:24:57.059Z,2.93
2024-02-29T19:27:25.146Z,2.73
2024-02-29T19:29:53.615Z,2.97
2024-02-29T19:32:20.919Z,3.00
2024-02-29T19:34:48.992Z,2.80
2024-02-29T19:37:15.895Z,2.70
2024-02-29T19:39:46.093Z,3.37
2024-02-29T19:42:12.770Z,3.60
2024-02-29T19:44:39.717Z,2.67
2024-02-29T19:47:14.672Z,2.80
2024-02-29T19:49:41.448Z,3.40
2024-02-29T19:52:09.673Z,3.73
2024-02-29T19:54:41.357Z,3.10
2024-02-29T19:57:10.195Z,3.57
2024-02-29T19:59:43.388Z,2.73
2024-02-29T20:02:10.158Z,2.83
2024-02-29T20:04:37.166Z,2.50
2024-02-29T20:07:04.124Z,2.33
2024-02-29T20:09:31.278Z,3.03
2024-02-29T20:11:58.217Z,2.60
2024-02-29T20:14:27.085Z,2.73
2024-02-29T20:16:53.929Z,2.80
2024-02-29T20:19:22.787Z,2.67
2024-02-29T20:21:49.812Z,3.20
2024-02-29T20:24:18.898Z,2.73
2024-02-29T20:26:49.835Z,2.60
2024-02-29T20:29:16.632Z,2.47
2024-02-29T20:31:43.704Z,2.80
2024-02-29T20:34:10.532Z,2.20
2024-02-29T20:36:52.193Z,2.83
2024-02-29T20:39:23.239Z,2.10
2024-02-29T20:41:50.179Z,2.90
2024-02-29T20:44:17.272Z,3.20
2024-02-29T20:46:44.311Z,2.10
2024-02-29T20:49:11.094Z,3.30
2024-02-29T20:51:37.837Z,2.97
2024-02-29T20:54:07.809Z,3.03
2024-02-29T20:56:35.714Z,2.50
2024-02-29T20:59:05.255Z,2.70
2024-02-29T21:01:32.310Z,2.03
2024-02-29T21:03:59.265Z,2.10
2024-02-29T21:06:26.539Z,2.83
2024-02-29T21:08:53.439Z,3.03
2024-02-29T21:11:20.464Z,2.33
2024-02-29T21:13:48.396Z,3.20
2024-02-29T21:16:15.285Z,2.97
2024-02-29T21:18:43.379Z,3.40
2024-02-29T21:21:10.184Z,2.80
2024-02-29T21:23:43.126Z,2.43
2024-02-29T21:26:11.960Z,2.83
2024-02-29T21:28:39.023Z,2.07
2024-02-29T21:31:10.980Z,3.10
2024-02-29T21:33:37.767Z,2.47
2024-02-29T21:36:04.977Z,2.10
2024-02-29T21:38:31.731Z,3.67
2024-02-29T21:41:07.870Z,2.77
2024-02-29T21:43:45.853Z,2.53
2024-02-29T21:46:16.637Z,2.97
2024-02-29T21:48:47.417Z,3.03
2024-02-29T21:51:20.351Z,2.40
2024-02-29T21:53:48.129Z,2.93
2024-02-29T21:56:16.885Z,2.47
2024-02-29T21:58:45.819Z,2.67
2024-02-29T22:01:13.045Z,3.30
2024-02-29T22:03:40.748Z,2.80
2024-02-29T22:06:16.792Z,2.40
2024-02-29T22:08:45.554Z,3.27
2024-02-29T22:11:12.734Z,3.13
2024-02-29T22:13:41.026Z,3.93
2024-02-29T22:16:08.048Z,1.77
2024-02-29T22:18:34.844Z,3.10
2024-02-29T22:21:05.170Z,2.60
2024-02-29T22:23:32.956Z,2.80
2024-02-29T22:26:00.141Z,2.30
2024-02-29T22:28:27.084Z,3.47
2024-02-29T22:30:54.040Z,3.30
2024-02-29T22:33:21.997Z,2.40
2024-02-29T22:35:50.118Z,3.20
2024-02-29T22:38:30.111Z,3.57
2024-02-29T22:40:57.865Z,3.60
2024-02-29T22:43:27.518Z,3.73
2024-02-29T22:46:00.577Z,3.27
2024-02-29T22:48:27.423Z,2.30
2024-02-29T22:50:54.518Z,2.70
2024-02-29T22:53:30.907Z,3.10
2024-02-29T22:56:02.371Z,3.80
2024-02-29T22:58:42.923Z,2.80
2024-02-29T23:01:11.451Z,3.00
2024-02-29T23:03:40.682Z,3.67
2024-02-29T23:06:07.532Z,4.37
2024-02-29T23:08:34.311Z,3.37
2024-02-29T23:11:01.183Z,4.03
2024-02-29T23:13:30.174Z,3.63
2024-02-29T23:15:58.744Z,3.80
2024-02-29T23:18:25.617Z,3.43
2024-02-29T23:21:01.982Z,3.83
2024-02-29T23:23:28.794Z,4.13
2024-02-29T23:25:57.622Z,3.57
2024-02-29T23:28:24.446Z,3.90
2024-02-29T23:30:51.349Z,4.03
2024-02-29T23:33:18.279Z,2.60
2024-02-29T23:35:45.140Z,3.00
2024-02-29T23:38:13.947Z,4.13
2024-02-29T23:40:48.062Z,3.27
2024-02-29T23:43:16.988Z,3.40
2024-02-29T23:45:44.730Z,4.00
2024-02-29T23:48:13.089Z,3.80
2024-02-29T23:50:39.865Z,3.17
2024-02-29T23:53:11.061Z,3.63
2024-02-29T23:55:40.953Z,3.20
2024-02-29T23:58:07.652Z,3.63
